sensor_id;sensor_type;location;lat;lon;timestamp;P1;P2;P0
47079;PMS5003;33067;49.296;14.470;2024-02-04T07:00:45;2;2;
47079;PMS5003;33067;49.296;14.470;2024-02-04T07:03:10;1;1;
47079;PMS5003;33067;49.296;14.470;2024-02-04T07:05:35;2;1;
47079;PMS5003;33067;49.296;14.470;2024-02-04T07:08:00;2;2;
47079;PMS5003;33067;49.296;14.470;2024-02-04T07:10:26;0;0;
47079;PMS5003;33067;49.296;14.470;2024-02-04T07:12:51;0;0;
47079;PMS5003;33067;49.296;14.470;2024-02-04T07:15:16;4;3;
47079;PMS5003;33067;49.296;14.470;2024-02-04T07:17:42;2;2;
47079;PMS5003;33067;49.296;14.470;2024-02-04T07:20:07;4;3;
47079;PMS5003;33067;49.296;14.470;2024-02-04T07:22:33;8;6;
47079;PMS5003;33067;49.296;14.470;2024-02-04T07:24:58;2;2;
47079;PMS5003;33067;49.296;14.470;2024-02-04T07:27:23;3;3;
47079;PMS5003;33067;49.296;14.470;2024-02-04T07:29:49;1;1;
47079;PMS5003;33067;49.296;14.470;2024-02-04T07:32:14;2;1;
47079;PMS5003;33067;49.296;14.470;2024-02-04T07:34:39;2;1;
47079;PMS5003;33067;49.296;14.470;2024-02-04T07:37:05;1;1;
47079;PMS5003;33067;49.296;14.470;2024-02-04T07:39:30;1;1;
47079;PMS5003;33067;49.296;14.470;2024-02-04T07:41:55;1;1;
47079;PMS5003;33067;49.296;14.470;2024-02-04T07:44:21;1;1;
47079;PMS5003;33067;49.296;14.470;2024-02-04T07:46:46;2;2;
47079;PMS5003;33067;49.296;14.470;2024-02-04T07:49:11;0;0;
47079;PMS5003;33067;49.296;14.470;2024-02-04T07:51:37;1;1;
47079;PMS5003;33067;49.296;14.470;2024-02-04T07:54:02;0;0;
47079;PMS5003;33067;49.296;14.470;2024-02-04T07:56:28;1;1;
47079;PMS5003;33067;49.296;14.470;2024-02-04T07:58:53;1;1;
47079;PMS5003;33067;49.296;14.470;2024-02-04T08:01:18;0;0;
47079;PMS5003;33067;49.296;14.470;2024-02-04T08:03:44;2;2;
47079;PMS5003;33067;49.296;14.470;2024-02-04T08:06:09;1;1;
47079;PMS5003;33067;49.296;14.470;2024-02-04T08:08:34;0;0;
47079;PMS5003;33067;49.296;14.470;2024-02-04T08:11:00;0;0;
47079;PMS5003;33067;49.296;14.470;2024-02-04T08:13:25;1;1;
47079;PMS5003;33067;49.296;14.470;2024-02-04T08:15:50;1;1;
47079;PMS5003;33067;49.296;14.470;2024-02-04T08:18:16;2;2;
47079;PMS5003;33067;49.296;14.470;2024-02-04T08:20:42;2;2;
47079;PMS5003;33067;49.296;14.470;2024-02-04T08:23:07;1;1;
47079;PMS5003;33067;49.296;14.470;2024-02-04T08:25:32;0;0;
47079;PMS5003;33067;49.296;14.470;2024-02-04T08:27:58;0;0;
47079;PMS5003;33067;49.296;14.470;2024-02-04T08:30:23;2;0;
47079;PMS5003;33067;49.296;14.470;2024-02-04T08:32:48;0;0;
47079;PMS5003;33067;49.296;14.470;2024-02-04T08:35:14;1;1;
47079;PMS5003;33067;49.296;14.470;2024-02-04T08:37:39;1;1;
47079;PMS5003;33067;49.296;14.470;2024-02-04T08:40:05;1;1;
47079;PMS5003;33067;49.296;14.470;2024-02-04T08:42:30;2;2;
47079;PMS5003;33067;49.296;14.470;2024-02-04T08:44:55;0;0;
47079;PMS5003;33067;49.296;14.470;2024-02-04T08:47:20;3;3;
47079;PMS5003;33067;49.296;14.470;2024-02-04T08:49:45;3;1;
47079;PMS5003;33067;49.296;14.470;2024-02-04T08:52:11;2;1;
47079;PMS5003;33067;49.296;14.470;2024-02-04T08:54:36;2;2;
47079;PMS5003;33067;49.296;14.470;2024-02-04T08:57:02;6;4;
47079;PMS5003;33067;49.296;14.470;2024-02-04T08:59:29;3;3;
47079;PMS5003;33067;49.296;14.470;2024-02-04T09:01:52;8;8;
47079;PMS5003;33067;49.296;14.470;2024-02-04T09:04:17;1;1;
47079;PMS5003;33067;49.296;14.470;2024-02-04T09:06:43;5;3;
47079;PMS5003;33067;49.296;14.470;2024-02-04T09:09:08;4;4;
47079;PMS5003;33067;49.296;14.470;2024-02-04T09:11:33;5;3;
47079;PMS5003;33067;49.296;14.470;2024-02-04T09:13:59;1;1;
47079;PMS5003;33067;49.296;14.470;2024-02-04T09:16:24;2;2;
47079;PMS5003;33067;49.296;14.470;2024-02-04T09:18:49;2;1;
47079;PMS5003;33067;49.296;14.470;2024-02-04T09:21:15;2;2;
47079;PMS5003;33067;49.296;14.470;2024-02-04T09:23:40;2;2;
47079;PMS5003;33067;49.296;14.470;2024-02-04T09:26:05;2;1;
47079;PMS5003;33067;49.296;14.470;2024-02-04T09:28:31;1;1;
47079;PMS5003;33067;49.296;14.470;2024-02-04T09:30:56;4;2;
47079;PMS5003;33067;49.296;14.470;2024-02-04T09:33:21;10;9;
47079;PMS5003;33067;49.296;14.470;2024-02-04T09:35:47;18;18;
47079;PMS5003;33067;49.296;14.470;2024-02-04T09:38:12;23;23;
47079;PMS5003;33067;49.296;14.470;2024-02-04T09:40:37;13;13;
47079;PMS5003;33067;49.296;14.470;2024-02-04T09:43:03;18;18;
47079;PMS5003;33067;49.296;14.470;2024-02-04T09:45:28;22;22;
47079;PMS5003;33067;49.296;14.470;2024-02-04T09:47:53;2;2;
47079;PMS5003;33067;49.296;14.470;2024-02-04T09:50:19;2;0;
47079;PMS5003;33067;49.296;14.470;2024-02-04T09:52:45;1;1;
47079;PMS5003;33067;49.296;14.470;2024-02-04T09:55:09;0;0;
47079;PMS5003;33067;49.296;14.470;2024-02-04T09:57:35;1;1;
47079;PMS5003;33067;49.296;14.470;2024-02-04T10:00:00;2;2;
47079;PMS5003;33067;49.296;14.470;2024-02-04T10:02:25;2;2;
47079;PMS5003;33067;49.296;14.470;2024-02-04T10:04:51;4;3;
47079;PMS5003;33067;49.296;14.470;2024-02-04T10:07:16;2;1;
47079;PMS5003;33067;49.296;14.470;2024-02-04T10:09:41;0;0;
47079;PMS5003;33067;49.296;14.470;2024-02-04T10:12:07;1;1;
47079;PMS5003;33067;49.296;14.470;2024-02-04T10:14:32;2;1;
47079;PMS5003;33067;49.296;14.470;2024-02-04T10:16:57;0;0;
47079;PMS5003;33067;49.296;14.470;2024-02-04T10:19:24;1;1;
47079;PMS5003;33067;49.296;14.470;2024-02-04T10:24:13;0;0;
47079;PMS5003;33067;49.296;14.470;2024-02-04T10:26:39;18;18;
47079;PMS5003;33067;49.296;14.470;2024-02-04T10:29:04;3;3;
47079;PMS5003;33067;49.296;14.470;2024-02-04T10:31:30;40;35;
47079;PMS5003;33067;49.296;14.470;2024-02-04T10:33:55;6;6;
47079;PMS5003;33067;49.296;14.470;2024-02-04T10:36:20;4;3;
47079;PMS5003;33067;49.296;14.470;2024-02-04T10:38:45;18;18;
47079;PMS5003;33067;49.296;14.470;2024-02-04T10:41:12;19;19;
47079;PMS5003;33067;49.296;14.470;2024-02-04T10:43:36;17;17;
47079;PMS5003;33067;49.296;14.470;2024-02-04T10:46:04;7;7;
47079;PMS5003;33067;49.296;14.470;2024-02-04T10:48:28;13;13;
47079;PMS5003;33067;49.296;14.470;2024-02-04T10:50:52;16;16;
47079;PMS5003;33067;49.296;14.470;2024-02-04T10:53:19;9;9;
47079;PMS5003;33067;49.296;14.470;2024-02-04T10:55:43;4;4;
47079;PMS5003;33067;49.296;14.470;2024-02-04T10:58:08;5;5;
47079;PMS5003;33067;49.296;14.470;2024-02-04T11:00:34;7;7;
47079;PMS5003;33067;49.296;14.470;2024-02-04T11:02:59;9;9;
47079;PMS5003;33067;49.296;14.470;2024-02-04T11:05:25;10;7;
47079;PMS5003;33067;49.296;14.470;2024-02-04T11:07:49;4;4;
47079;PMS5003;33067;49.296;14.470;2024-02-04T11:10:15;4;4;
47079;PMS5003;33067;49.296;14.470;2024-02-04T11:12:40;4;4;
47079;PMS5003;33067;49.296;14.470;2024-02-04T11:15:07;3;3;
47079;PMS5003;33067;49.296;14.470;2024-02-04T11:17:42;4;4;
47079;PMS5003;33067;49.296;14.470;2024-02-04T11:19:59;10;10;
47079;PMS5003;33067;49.296;14.470;2024-02-04T11:22:29;13;13;
47079;PMS5003;33067;49.296;14.470;2024-02-04T11:24:53;13;13;
47079;PMS5003;33067;49.296;14.470;2024-02-04T11:27:12;12;12;
47079;PMS5003;33067;49.296;14.470;2024-02-04T11:29:37;6;6;
47079;PMS5003;33067;49.296;14.470;2024-02-04T11:32:03;11;11;
47079;PMS5003;33067;49.296;14.470;2024-02-04T11:34:28;12;12;
47079;PMS5003;33067;49.296;14.470;2024-02-04T11:36:53;9;9;
47079;PMS5003;33067;49.296;14.470;2024-02-04T11:39:19;1;1;
47079;PMS5003;33067;49.296;14.470;2024-02-04T11:41:45;2;2;
47079;PMS5003;33067;49.296;14.470;2024-02-04T11:44:10;3;2;
47079;PMS5003;33067;49.296;14.470;2024-02-04T11:46:35;2;2;
47079;PMS5003;33067;49.296;14.470;2024-02-04T11:49:00;10;7;
47079;PMS5003;33067;49.296;14.470;2024-02-04T11:51:26;12;12;
47079;PMS5003;33067;49.296;14.470;2024-02-04T11:53:51;11;11;
47079;PMS5003;33067;49.296;14.470;2024-02-04T11:56:17;14;14;
47079;PMS5003;33067;49.296;14.470;2024-02-04T11:58:41;9;6;
47079;PMS5003;33067;49.296;14.470;2024-02-04T12:01:09;4;4;
47079;PMS5003;33067;49.296;14.470;2024-02-04T12:03:32;4;4;
47079;PMS5003;33067;49.296;14.470;2024-02-04T12:05:57;5;5;
47079;PMS5003;33067;49.296;14.470;2024-02-04T12:08:23;7;5;
47079;PMS5003;33067;49.296;14.470;2024-02-04T12:10:48;4;4;
47079;PMS5003;33067;49.296;14.470;2024-02-04T12:13:13;9;7;
47079;PMS5003;33067;49.296;14.470;2024-02-04T12:15:38;11;11;
47079;PMS5003;33067;49.296;14.470;2024-02-04T12:18:05;4;4;
47079;PMS5003;33067;49.296;14.470;2024-02-04T12:20:30;12;12;
47079;PMS5003;33067;49.296;14.470;2024-02-04T12:22:55;8;5;
47079;PMS5003;33067;49.296;14.470;2024-02-04T12:25:20;3;3;
47079;PMS5003;33067;49.296;14.470;2024-02-04T12:27:45;1;1;
47079;PMS5003;33067;49.296;14.470;2024-02-04T12:30:11;0;0;
47079;PMS5003;33067;49.296;14.470;2024-02-04T12:32:36;11;11;
47079;PMS5003;33067;49.296;14.470;2024-02-04T12:35:01;12;12;
47079;PMS5003;33067;49.296;14.470;2024-02-04T12:37:26;6;6;
47079;PMS5003;33067;49.296;14.470;2024-02-04T12:39:52;10;10;
47079;PMS5003;33067;49.296;14.470;2024-02-04T12:42:17;17;17;
47079;PMS5003;33067;49.296;14.470;2024-02-04T12:44:43;12;12;
47079;PMS5003;33067;49.296;14.470;2024-02-04T12:47:08;13;13;
47079;PMS5003;33067;49.296;14.470;2024-02-04T12:49:33;12;12;
47079;PMS5003;33067;49.296;14.470;2024-02-04T12:52:03;11;11;
47079;PMS5003;33067;49.296;14.470;2024-02-04T12:54:24;10;10;
47079;PMS5003;33067;49.296;14.470;2024-02-04T12:56:50;9;9;
47079;PMS5003;33067;49.296;14.470;2024-02-04T12:59:23;17;17;
47079;PMS5003;33067;49.296;14.470;2024-02-04T13:01:40;17;13;
47079;PMS5003;33067;49.296;14.470;2024-02-04T13:04:05;2;2;
47079;PMS5003;33067;49.296;14.470;2024-02-04T13:06:31;5;5;
47079;PMS5003;33067;49.296;14.470;2024-02-04T13:08:56;16;13;
47079;PMS5003;33067;49.296;14.470;2024-02-04T13:11:22;19;18;
47079;PMS5003;33067;49.296;14.470;2024-02-04T13:13:47;8;8;
47079;PMS5003;33067;49.296;14.470;2024-02-04T13:16:13;3;3;
47079;PMS5003;33067;49.296;14.470;2024-02-04T13:18:38;3;3;
47079;PMS5003;33067;49.296;14.470;2024-02-04T13:21:03;2;2;
47079;PMS5003;33067;49.296;14.470;2024-02-04T13:23:29;1;1;
47079;PMS5003;33067;49.296;14.470;2024-02-04T13:25:54;2;2;
47079;PMS5003;33067;49.296;14.470;2024-02-04T13:28:19;2;2;
47079;PMS5003;33067;49.296;14.470;2024-02-04T13:30:45;13;12;
47079;PMS5003;33067;49.296;14.470;2024-02-04T13:33:10;25;25;
47079;PMS5003;33067;49.296;14.470;2024-02-04T13:35:35;21;20;
47079;PMS5003;33067;49.296;14.470;2024-02-04T13:38:01;25;25;
47079;PMS5003;33067;49.296;14.470;2024-02-04T13:40:26;15;15;
47079;PMS5003;33067;49.296;14.470;2024-02-04T13:42:51;13;13;
47079;PMS5003;33067;49.296;14.470;2024-02-04T13:45:17;17;17;
47079;PMS5003;33067;49.296;14.470;2024-02-04T13:47:42;15;15;
47079;PMS5003;33067;49.296;14.470;2024-02-04T13:50:09;19;19;
47079;PMS5003;33067;49.296;14.470;2024-02-04T13:52:33;17;17;
47079;PMS5003;33067;49.296;14.470;2024-02-04T13:54:58;28;28;
47079;PMS5003;33067;49.296;14.470;2024-02-04T13:57:24;20;20;
47079;PMS5003;33067;49.296;14.470;2024-02-04T13:59:49;29;29;
47079;PMS5003;33067;49.296;14.470;2024-02-04T14:02:14;25;25;
47079;PMS5003;33067;49.296;14.470;2024-02-04T14:04:40;25;25;
47079;PMS5003;33067;49.296;14.470;2024-02-04T14:07:05;24;24;
47079;PMS5003;33067;49.296;14.470;2024-02-04T14:09:32;15;15;
47079;PMS5003;33067;49.296;14.470;2024-02-04T14:11:56;17;17;
47079;PMS5003;33067;49.296;14.470;2024-02-04T14:14:22;18;18;
47079;PMS5003;33067;49.296;14.470;2024-02-04T14:16:46;19;18;
47079;PMS5003;33067;49.296;14.470;2024-02-04T14:19:12;15;15;
47079;PMS5003;33067;49.296;14.470;2024-02-04T14:21:37;16;16;
47079;PMS5003;33067;49.296;14.470;2024-02-04T14:24:03;18;18;
47079;PMS5003;33067;49.296;14.470;2024-02-04T14:26:28;29;25;
47079;PMS5003;33067;49.296;14.470;2024-02-04T14:28:53;31;31;
47079;PMS5003;33067;49.296;14.470;2024-02-04T14:31:19;29;29;
47079;PMS5003;33067;49.296;14.470;2024-02-04T14:33:44;23;23;
47079;PMS5003;33067;49.296;14.470;2024-02-04T14:36:10;28;27;
47079;PMS5003;33067;49.296;14.470;2024-02-04T14:38:35;5;4;
47079;PMS5003;33067;49.296;14.470;2024-02-04T14:41:00;4;4;
47079;PMS5003;33067;49.296;14.470;2024-02-04T14:43:25;3;3;
47079;PMS5003;33067;49.296;14.470;2024-02-04T14:45:51;2;2;
47079;PMS5003;33067;49.296;14.470;2024-02-04T14:48:17;1;1;
47079;PMS5003;33067;49.296;14.470;2024-02-04T14:50:42;1;1;
47079;PMS5003;33067;49.296;14.470;2024-02-04T14:53:07;0;0;
47079;PMS5003;33067;49.296;14.470;2024-02-04T14:55:32;1;1;
47079;PMS5003;33067;49.296;14.470;2024-02-04T14:57:57;3;1;
47079;PMS5003;33067;49.296;14.470;2024-02-04T15:00:23;3;1;
47079;PMS5003;33067;49.296;14.470;2024-02-04T15:02:48;1;1;
47079;PMS5003;33067;49.296;14.470;2024-02-04T15:05:13;2;2;
47079;PMS5003;33067;49.296;14.470;2024-02-04T15:07:39;2;2;
47079;PMS5003;33067;49.296;14.470;2024-02-04T15:10:05;3;3;
47079;PMS5003;33067;49.296;14.470;2024-02-04T15:12:30;1;1;
47079;PMS5003;33067;49.296;14.470;2024-02-04T15:14:55;1;1;
47079;PMS5003;33067;49.296;14.470;2024-02-04T15:17:20;2;2;
47079;PMS5003;33067;49.296;14.470;2024-02-04T15:19:46;2;2;
47079;PMS5003;33067;49.296;14.470;2024-02-04T15:22:11;4;4;
47079;PMS5003;33067;49.296;14.470;2024-02-04T15:24:36;2;2;
47079;PMS5003;33067;49.296;14.470;2024-02-04T15:27:01;2;2;
47079;PMS5003;33067;49.296;14.470;2024-02-04T15:29:27;2;2;
47079;PMS5003;33067;49.296;14.470;2024-02-04T15:31:53;2;2;
47079;PMS5003;33067;49.296;14.470;2024-02-04T15:34:18;2;2;
47079;PMS5003;33067;49.296;14.470;2024-02-04T15:36:43;1;1;
47079;PMS5003;33067;49.296;14.470;2024-02-04T15:39:08;2;2;
47079;PMS5003;33067;49.296;14.470;2024-02-04T15:41:34;4;4;
47079;PMS5003;33067;49.296;14.470;2024-02-04T15:43:59;3;3;
47079;PMS5003;33067;49.296;14.470;2024-02-04T15:46:25;2;2;
47079;PMS5003;33067;49.296;14.470;2024-02-04T15:48:50;1;1;
47079;PMS5003;33067;49.296;14.470;2024-02-04T15:51:15;2;2;
47079;PMS5003;33067;49.296;14.470;2024-02-04T15:53:41;5;2;
47079;PMS5003;33067;49.296;14.470;2024-02-04T15:56:06;3;3;
47079;PMS5003;33067;49.296;14.470;2024-02-04T15:58:31;4;4;
47079;PMS5003;33067;49.296;14.470;2024-02-04T16:00:57;3;3;
47079;PMS5003;33067;49.296;14.470;2024-02-04T16:03:22;2;2;
47079;PMS5003;33067;49.296;14.470;2024-02-04T16:05:47;2;2;
47079;PMS5003;33067;49.296;14.470;2024-02-04T16:08:13;2;2;
47079;PMS5003;33067;49.296;14.470;2024-02-04T16:10:38;2;2;
47079;PMS5003;33067;49.296;14.470;2024-02-04T16:13:03;1;1;
47079;PMS5003;33067;49.296;14.470;2024-02-04T16:15:28;2;1;
47079;PMS5003;33067;49.296;14.470;2024-02-04T16:17:54;3;2;
47079;PMS5003;33067;49.296;14.470;2024-02-04T16:20:19;1;1;
47079;PMS5003;33067;49.296;14.470;2024-02-04T16:22:44;4;3;
47079;PMS5003;33067;49.296;14.470;2024-02-04T16:25:09;4;4;
47079;PMS5003;33067;49.296;14.470;2024-02-04T16:27:35;1;1;
47079;PMS5003;33067;49.296;14.470;2024-02-04T16:30:00;1;1;
47079;PMS5003;33067;49.296;14.470;2024-02-04T16:32:25;2;2;
47079;PMS5003;33067;49.296;14.470;2024-02-04T16:34:51;0;0;
47079;PMS5003;33067;49.296;14.470;2024-02-04T16:37:16;1;1;
47079;PMS5003;33067;49.296;14.470;2024-02-04T16:39:42;2;2;
47079;PMS5003;33067;49.296;14.470;2024-02-04T16:42:07;3;3;
47079;PMS5003;33067;49.296;14.470;2024-02-04T16:44:33;1;1;
47079;PMS5003;33067;49.296;14.470;2024-02-04T16:46:57;4;2;
47079;PMS5003;33067;49.296;14.470;2024-02-04T16:49:24;2;2;
47079;PMS5003;33067;49.296;14.470;2024-02-04T16:51:49;1;1;
47079;PMS5003;33067;49.296;14.470;2024-02-04T16:54:14;1;1;
47079;PMS5003;33067;49.296;14.470;2024-02-04T16:56:39;1;1;
47079;PMS5003;33067;49.296;14.470;2024-02-04T16:59:05;6;2;
47079;PMS5003;33067;49.296;14.470;2024-02-04T17:01:30;5;5;
47079;PMS5003;33067;49.296;14.470;2024-02-04T17:03:56;4;4;
47079;PMS5003;33067;49.296;14.470;2024-02-04T17:06:21;4;4;
47079;PMS5003;33067;49.296;14.470;2024-02-04T17:08:46;4;3;
47079;PMS5003;33067;49.296;14.470;2024-02-04T17:11:12;3;3;
47079;PMS5003;33067;49.296;14.470;2024-02-04T17:13:37;8;8;
47079;PMS5003;33067;49.296;14.470;2024-02-04T17:16:03;3;1;
47079;PMS5003;33067;49.296;14.470;2024-02-04T17:18:30;2;2;
47079;PMS5003;33067;49.296;14.470;2024-02-04T17:20:53;5;5;
47079;PMS5003;33067;49.296;14.470;2024-02-04T17:23:18;4;4;
47079;PMS5003;33067;49.296;14.470;2024-02-04T17:25:43;2;2;
47079;PMS5003;33067;49.296;14.470;2024-02-04T17:28:09;6;6;
47079;PMS5003;33067;49.296;14.470;2024-02-04T17:30:34;6;6;
47079;PMS5003;33067;49.296;14.470;2024-02-04T17:32:59;1;1;
47079;PMS5003;33067;49.296;14.470;2024-02-04T17:35:25;1;1;
47079;PMS5003;33067;49.296;14.470;2024-02-04T17:37:50;2;2;
47079;PMS5003;33067;49.296;14.470;2024-02-04T17:40:15;2;2;
47079;PMS5003;33067;49.296;14.470;2024-02-04T17:42:41;2;2;
47079;PMS5003;33067;49.296;14.470;2024-02-04T17:45:06;2;2;
47079;PMS5003;33067;49.296;14.470;2024-02-04T17:47:31;3;3;
47079;PMS5003;33067;49.296;14.470;2024-02-04T17:49:57;1;1;
47079;PMS5003;33067;49.296;14.470;2024-02-04T17:52:22;1;1;
47079;PMS5003;33067;49.296;14.470;2024-02-04T17:54:47;6;3;
47079;PMS5003;33067;49.296;14.470;2024-02-04T17:57:13;4;4;
47079;PMS5003;33067;49.296;14.470;2024-02-04T17:59:38;3;3;
47079;PMS5003;33067;49.296;14.470;2024-02-04T18:02:04;3;3;
47079;PMS5003;33067;49.296;14.470;2024-02-04T18:04:29;2;2;
47079;PMS5003;33067;49.296;14.470;2024-02-04T18:06:55;3;2;
47079;PMS5003;33067;49.296;14.470;2024-02-04T18:09:20;1;1;
47079;PMS5003;33067;49.296;14.470;2024-02-04T18:11:46;1;1;
47079;PMS5003;33067;49.296;14.470;2024-02-04T18:14:10;0;0;
47079;PMS5003;33067;49.296;14.470;2024-02-04T18:16:35;1;1;
47079;PMS5003;33067;49.296;14.470;2024-02-04T18:19:01;1;1;
47079;PMS5003;33067;49.296;14.470;2024-02-04T18:21:26;2;2;
47079;PMS5003;33067;49.296;14.470;2024-02-04T18:23:51;3;2;
47079;PMS5003;33067;49.296;14.470;2024-02-04T18:26:18;5;5;
47079;PMS5003;33067;49.296;14.470;2024-02-04T18:28:42;3;3;
47079;PMS5003;33067;49.296;14.470;2024-02-04T18:31:07;5;3;
47079;PMS5003;33067;49.296;14.470;2024-02-04T18:33:33;2;2;
47079;PMS5003;33067;49.296;14.470;2024-02-04T18:35:58;2;2;
47079;PMS5003;33067;49.296;14.470;2024-02-04T18:38:24;3;3;
47079;PMS5003;33067;49.296;14.470;2024-02-04T18:40:49;5;5;
47079;PMS5003;33067;49.296;14.470;2024-02-04T18:43:14;6;3;
47079;PMS5003;33067;49.296;14.470;2024-02-04T18:45:39;4;4;
47079;PMS5003;33067;49.296;14.470;2024-02-04T18:48:05;5;5;
47079;PMS5003;33067;49.296;14.470;2024-02-04T18:50:30;2;2;
47079;PMS5003;33067;49.296;14.470;2024-02-04T18:52:55;2;2;
47079;PMS5003;33067;49.296;14.470;2024-02-04T18:55:20;2;2;
47079;PMS5003;33067;49.296;14.470;2024-02-04T18:57:46;5;5;
47079;PMS5003;33067;49.296;14.470;2024-02-04T19:00:12;5;4;
47079;PMS5003;33067;49.296;14.470;2024-02-04T19:02:36;3;3;
47079;PMS5003;33067;49.296;14.470;2024-02-04T19:05:02;4;3;
47079;PMS5003;33067;49.296;14.470;2024-02-04T19:07:27;2;2;
47079;PMS5003;33067;49.296;14.470;2024-02-04T19:09:52;2;2;
47079;PMS5003;33067;49.296;14.470;2024-02-04T19:12:18;2;2;
47079;PMS5003;33067;49.296;14.470;2024-02-04T19:14:44;2;2;
47079;PMS5003;33067;49.296;14.470;2024-02-04T19:17:08;9;9;
47079;PMS5003;33067;49.296;14.470;2024-02-04T19:19:35;5;5;
47079;PMS5003;33067;49.296;14.470;2024-02-04T19:21:59;2;2;
47079;PMS5003;33067;49.296;14.470;2024-02-04T19:24:24;1;1;
47079;PMS5003;33067;49.296;14.470;2024-02-04T19:26:50;3;3;
47079;PMS5003;33067;49.296;14.470;2024-02-04T19:29:15;2;2;
47079;PMS5003;33067;49.296;14.470;2024-02-04T19:31:40;2;2;
47079;PMS5003;33067;49.296;14.470;2024-02-04T19:34:06;2;1;
47079;PMS5003;33067;49.296;14.470;2024-02-04T19:36:31;4;4;
47079;PMS5003;33067;49.296;14.470;2024-02-04T19:38:56;8;4;
47079;PMS5003;33067;49.296;14.470;2024-02-04T19:41:22;2;2;
47079;PMS5003;33067;49.296;14.470;2024-02-04T19:43:47;5;3;
47079;PMS5003;33067;49.296;14.470;2024-02-04T19:46:12;2;2;
47079;PMS5003;33067;49.296;14.470;2024-02-04T19:48:38;2;2;
47079;PMS5003;33067;49.296;14.470;2024-02-04T19:51:03;3;2;
47079;PMS5003;33067;49.296;14.470;2024-02-04T19:53:29;2;2;
47079;PMS5003;33067;49.296;14.470;2024-02-04T19:55:54;3;3;
47079;PMS5003;33067;49.296;14.470;2024-02-04T19:58:19;3;2;
47079;PMS5003;33067;49.296;14.470;2024-02-04T20:00:44;1;1;
47079;PMS5003;33067;49.296;14.470;2024-02-04T20:03:11;3;2;
47079;PMS5003;33067;49.296;14.470;2024-02-04T20:05:35;4;4;
47079;PMS5003;33067;49.296;14.470;2024-02-04T20:08:00;2;2;
47079;PMS5003;33067;49.296;14.470;2024-02-04T20:10:26;2;2;
47079;PMS5003;33067;49.296;14.470;2024-02-04T20:12:51;3;3;
47079;PMS5003;33067;49.296;14.470;2024-02-04T20:15:16;3;3;
47079;PMS5003;33067;49.296;14.470;2024-02-04T20:17:42;2;2;
47079;PMS5003;33067;49.296;14.470;2024-02-04T20:20:07;2;2;
47079;PMS5003;33067;49.296;14.470;2024-02-04T20:22:32;3;1;
47079;PMS5003;33067;49.296;14.470;2024-02-04T20:24:57;2;2;
47079;PMS5003;33067;49.296;14.470;2024-02-04T20:27:23;2;2;
47079;PMS5003;33067;49.296;14.470;2024-02-04T20:29:48;2;2;
47079;PMS5003;33067;49.296;14.470;2024-02-04T20:32:14;3;3;
47079;PMS5003;33067;49.296;14.470;2024-02-04T20:34:39;5;5;
47079;PMS5003;33067;49.296;14.470;2024-02-04T20:37:04;3;3;
47079;PMS5003;33067;49.296;14.470;2024-02-04T20:39:30;3;3;
47079;PMS5003;33067;49.296;14.470;2024-02-04T20:41:55;3;3;
47079;PMS5003;33067;49.296;14.470;2024-02-04T20:44:20;2;2;
47079;PMS5003;33067;49.296;14.470;2024-02-04T20:46:46;5;3;
47079;PMS5003;33067;49.296;14.470;2024-02-04T20:49:11;3;1;
47079;PMS5003;33067;49.296;14.470;2024-02-04T20:51:36;3;3;
47079;PMS5003;33067;49.296;14.470;2024-02-04T20:54:02;6;5;
47079;PMS5003;33067;49.296;14.470;2024-02-04T20:56:27;2;2;
47079;PMS5003;33067;49.296;14.470;2024-02-04T20:58:52;4;4;
47079;PMS5003;33067;49.296;14.470;2024-02-04T21:01:18;2;2;
47079;PMS5003;33067;49.296;14.470;2024-02-04T21:03:43;1;1;
47079;PMS5003;33067;49.296;14.470;2024-02-04T21:06:08;1;1;
47079;PMS5003;33067;49.296;14.470;2024-02-04T21:08:34;1;1;
47079;PMS5003;33067;49.296;14.470;2024-02-04T21:10:59;1;1;
47079;PMS5003;33067;49.296;14.470;2024-02-04T21:13:25;1;1;
47079;PMS5003;33067;49.296;14.470;2024-02-04T21:15:50;3;3;
47079;PMS5003;33067;49.296;14.470;2024-02-04T21:18:15;2;1;
47079;PMS5003;33067;49.296;14.470;2024-02-04T21:20:40;0;0;
47079;PMS5003;33067;49.296;14.470;2024-02-04T21:23:06;1;1;
47079;PMS5003;33067;49.296;14.470;2024-02-04T21:25:31;1;1;
47079;PMS5003;33067;49.296;14.470;2024-02-04T21:27:56;1;1;
47079;PMS5003;33067;49.296;14.470;2024-02-04T21:30:22;1;1;
47079;PMS5003;33067;49.296;14.470;2024-02-04T21:32:47;1;1;
47079;PMS5003;33067;49.296;14.470;2024-02-04T21:35:12;4;4;
47079;PMS5003;33067;49.296;14.470;2024-02-04T21:37:38;1;1;
47079;PMS5003;33067;49.296;14.470;2024-02-04T21:40:03;1;1;
47079;PMS5003;33067;49.296;14.470;2024-02-04T21:42:28;1;1;
47079;PMS5003;33067;49.296;14.470;2024-02-04T21:44:54;0;0;
47079;PMS5003;33067;49.296;14.470;2024-02-04T21:47:19;1;1;
47079;PMS5003;33067;49.296;14.470;2024-02-04T21:49:44;0;0;
47079;PMS5003;33067;49.296;14.470;2024-02-04T21:52:09;0;0;
47079;PMS5003;33067;49.296;14.470;2024-02-04T21:54:35;2;1;
47079;PMS5003;33067;49.296;14.470;2024-02-04T21:57:00;0;0;
47079;PMS5003;33067;49.296;14.470;2024-02-04T21:59:25;0;0;
47079;PMS5003;33067;49.296;14.470;2024-02-04T22:01:51;0;0;
47079;PMS5003;33067;49.296;14.470;2024-02-04T22:04:16;1;1;
47079;PMS5003;33067;49.296;14.470;2024-02-04T22:06:42;2;2;
47079;PMS5003;33067;49.296;14.470;2024-02-04T22:09:07;1;1;
47079;PMS5003;33067;49.296;14.470;2024-02-04T22:11:32;0;0;
47079;PMS5003;33067;49.296;14.470;2024-02-04T22:13:57;1;1;
47079;PMS5003;33067;49.296;14.470;2024-02-04T22:16:23;3;1;
47079;PMS5003;33067;49.296;14.470;2024-02-04T22:18:48;1;1;
47079;PMS5003;33067;49.296;14.470;2024-02-04T22:21:17;1;1;
47079;PMS5003;33067;49.296;14.470;2024-02-04T22:23:39;0;0;
47079;PMS5003;33067;49.296;14.470;2024-02-04T22:26:04;0;0;
47079;PMS5003;33067;49.296;14.470;2024-02-04T22:28:29;0;0;
47079;PMS5003;33067;49.296;14.470;2024-02-04T22:30:55;1;1;
47079;PMS5003;33067;49.296;14.470;2024-02-04T22:33:20;1;1;
47079;PMS5003;33067;49.296;14.470;2024-02-04T22:35:45;1;1;
47079;PMS5003;33067;49.296;14.470;2024-02-04T22:38:11;2;2;
47079;PMS5003;33067;49.296;14.470;2024-02-04T22:40:36;1;1;
47079;PMS5003;33067;49.296;14.470;2024-02-04T22:43:01;1;1;
47079;PMS5003;33067;49.296;14.470;2024-02-04T22:45:27;4;4;
47079;PMS5003;33067;49.296;14.470;2024-02-04T22:47:52;3;3;
47079;PMS5003;33067;49.296;14.470;2024-02-04T22:50:17;0;0;
47079;PMS5003;33067;49.296;14.470;2024-02-04T22:52:43;3;3;
47079;PMS5003;33067;49.296;14.470;2024-02-04T22:55:08;3;3;
47079;PMS5003;33067;49.296;14.470;2024-02-04T22:57:33;6;6;
47079;PMS5003;33067;49.296;14.470;2024-02-04T22:59:59;1;1;
47079;PMS5003;33067;49.296;14.470;2024-02-04T23:02:24;12;11;
47079;PMS5003;33067;49.296;14.470;2024-02-04T23:04:50;6;6;
47079;PMS5003;33067;49.296;14.470;2024-02-04T23:07:15;12;10;
47079;PMS5003;33067;49.296;14.470;2024-02-04T23:09:40;8;6;
47079;PMS5003;33067;49.296;14.470;2024-02-04T23:12:06;1;1;
47079;PMS5003;33067;49.296;14.470;2024-02-04T23:14:31;2;2;
47079;PMS5003;33067;49.296;14.470;2024-02-04T23:16:57;2;2;